Time;durP1;ratioP1;P1;durP2;ratioP2;P2;SDS_P1;SDS_P2;PMS_P1;PMS_P2;Temp;Humidity;BMP_temperature;BMP_pressure;BME280_temperature;BME280_humidity;BME280_pressure;Samples;Min_cycle;Max_cycle;Signal;HPM_P1;HPM_P2
2023/01/31 00:01:39;;;;;;;3.67;1.85;;;5.70;99.90;;;5.53;nan;101604.78;4899718;29;20718;-66
2023/01/31 00:04:10;;;;;;;1.60;1.47;;;5.70;99.90;;;5.58;nan;101615.81;4916022;29;20268;-67
2023/01/31 00:06:43;;;;;;;1.60;1.50;;;5.70;99.90;;;5.56;nan;101609.03;4916245;29;20638;-66
2023/01/31 00:09:12;;;;;;;3.03;1.80;;;5.70;99.90;;;5.59;nan;101606.31;4899172;29;20626;-66
2023/01/31 00:11:39;;;;;;;5.33;2.57;;;5.70;99.90;;;5.57;nan;101610.69;4915933;29;20672;-66
2023/01/31 00:14:09;;;;;;;2.47;2.20;;;5.70;99.90;;;5.61;nan;101609.69;4911336;29;20679;-66
2023/01/31 00:16:36;;;;;;;2.33;2.15;;;5.70;99.90;;;5.62;nan;101624.34;4909069;29;20215;-66
2023/01/31 00:19:03;;;;;;;3.13;1.90;;;5.80;99.90;;;5.61;nan;101622.63;4901483;29;20285;-66
2023/01/31 00:21:31;;;;;;;2.27;2.17;;;5.80;99.90;;;5.63;nan;101619.09;4900529;29;20672;-65
2023/01/31 00:23:58;;;;;;;2.30;2.00;;;5.80;99.90;;;5.63;nan;101624.28;4903376;29;20641;-66
2023/01/31 00:26:34;;;;;;;1.43;1.33;;;5.80;99.90;;;5.65;nan;101624.22;4903504;29;20649;-65
2023/01/31 00:29:04;;;;;;;2.97;2.13;;;5.80;99.90;;;5.64;nan;101618.22;4914929;29;20638;-64
2023/01/31 00:31:33;;;;;;;2.20;1.50;;;5.80;99.90;;;5.64;nan;101622.53;4895458;29;20678;-68
2023/01/31 00:34:01;;;;;;;3.33;1.83;;;5.80;99.90;;;5.65;nan;101627.66;4896945;29;21392;-64
2023/01/31 00:36:33;;;;;;;1.77;1.57;;;5.80;99.90;;;5.63;nan;101619.09;4890767;29;20704;-66
2023/01/31 00:39:03;;;;;;;5.65;2.33;;;5.80;99.90;;;5.64;nan;101622.53;4900876;29;20646;-66
2023/01/31 00:41:31;;;;;;;2.40;2.30;;;5.80;99.90;;;5.65;nan;101619.03;4898916;29;20321;-67
2023/01/31 00:43:59;;;;;;;2.93;2.03;;;5.80;99.90;;;5.64;nan;101618.22;4904054;29;21048;-66
2023/01/31 00:46:26;;;;;;;1.87;1.77;;;5.80;99.90;;;5.63;nan;101600.97;4915220;29;20645;-67
2023/01/31 00:48:55;;;;;;;5.30;2.40;;;5.80;99.90;;;5.62;nan;101607.06;4913241;29;20670;-67
2023/01/31 00:51:24;;;;;;;1.80;1.70;;;5.80;99.90;;;5.59;nan;101601.97;4909594;29;20666;-66
2023/01/31 00:53:52;;;;;;;1.90;1.80;;;5.70;99.90;;;5.61;nan;101607.09;4906747;29;21201;-66
2023/01/31 00:56:22;;;;;;;2.07;1.37;;;5.80;99.90;;;5.58;nan;101604.63;4910567;29;20716;-66
2023/01/31 00:58:50;;;;;;;1.73;1.40;;;5.70;99.90;;;5.55;nan;101603.00;4895582;29;20640;-66
2023/01/31 01:01:21;;;;;;;1.17;1.07;;;5.70;99.90;;;5.58;nan;101602.03;4908344;29;20748;-66
2023/01/31 01:03:48;;;;;;;2.80;1.70;;;5.80;99.90;;;5.56;nan;101599.50;4914327;29;20614;-67
2023/01/31 01:06:15;;;;;;;3.03;2.03;;;5.70;99.90;;;5.56;nan;101596.91;4906680;29;20218;-67
2023/01/31 01:08:43;;;;;;;2.17;1.50;;;5.70;99.90;;;5.54;nan;101601.28;4912425;29;20634;-66
2023/01/31 01:11:21;;;;;;;1.73;1.20;;;5.70;99.90;;;5.52;nan;101595.31;4900562;29;21289;-67
2023/01/31 01:13:49;;;;;;;2.90;2.70;;;5.70;99.90;;;5.52;nan;101603.09;4901466;29;20640;-66
2023/01/31 01:16:23;;;;;;;3.50;1.95;;;5.70;99.90;;;5.50;nan;101604.91;4908684;29;20678;-67
2023/01/31 01:18:53;;;;;;;3.30;3.00;;;5.70;99.90;;;5.46;nan;101603.31;4909571;29;20202;-66
2023/01/31 01:21:27;;;;;;;7.00;2.80;;;5.60;99.90;;;5.45;nan;101612.00;4911852;29;20234;-66
2023/01/31 01:24:00;;;;;;;2.28;2.10;;;5.60;99.90;;;5.45;nan;101612.81;4911890;29;20623;-66
2023/01/31 01:26:30;;;;;;;2.88;1.65;;;5.60;99.90;;;5.45;nan;101606.81;4909061;29;20205;-66
2023/01/31 01:29:00;;;;;;;2.30;2.20;;;5.60;99.90;;;5.44;nan;101615.47;4905563;29;20218;-66
2023/01/31 01:31:30;;;;;;;2.38;2.22;;;5.60;99.90;;;5.40;nan;101616.47;4904669;29;21308;-66
2023/01/31 01:34:08;;;;;;;1.07;1.07;;;5.60;99.90;;;5.35;nan;101618.38;4906821;29;20392;-66
2023/01/31 01:36:35;;;;;;;1.67;1.58;;;5.50;99.90;;;5.31;nan;101628.00;4886512;29;20636;-66
2023/01/31 01:39:07;;;;;;;2.13;1.33;;;5.50;99.90;;;5.27;nan;101622.97;4910130;29;20209;-67
2023/01/31 01:41:36;;;;;;;1.10;1.00;;;5.50;99.90;;;5.30;nan;101622.88;4908462;29;20235;-67
2023/01/31 01:44:41;;;;;;;0.40;0.35;;;5.50;99.90;;;5.30;nan;101617.72;4915746;29;21274;-66
2023/01/31 01:47:28;;;;;;;0.63;0.63;;;5.50;99.90;;;5.31;nan;101622.81;4906626;29;20255;-65
2023/01/31 01:50:20;;;;;;;4.13;1.58;;;5.50;99.90;;;5.27;nan;101622.97;4915462;29;21193;-65
2023/01/31 01:52:53;;;;;;;2.13;1.33;;;5.40;99.90;;;5.24;nan;101629.09;4906481;29;20210;-65
2023/01/31 01:55:51;;;;;;;2.20;1.98;;;5.40;99.90;;;5.29;nan;101627.19;4897581;29;20234;-66
2023/01/31 01:58:56;;;;;;;0.77;0.75;;;5.50;99.90;;;5.20;nan;101632.69;4900161;29;20758;-65
2023/01/31 02:01:28;;;;;;;0.98;0.98;;;5.40;99.90;;;5.14;nan;101626.88;4885709;29;20293;-65
2023/01/31 02:03:56;;;;;;;1.08;1.02;;;5.30;99.90;;;5.16;nan;101630.25;4900334;29;20292;-66
2023/01/31 02:06:23;;;;;;;4.50;1.70;;;5.30;99.90;;;5.16;nan;101627.66;4886383;29;20216;-65
2023/01/31 02:08:50;;;;;;;6.43;2.60;;;5.30;99.90;;;5.12;nan;101634.69;4908426;29;20202;-66
2023/01/31 02:11:23;;;;;;;1.30;1.30;;;5.30;99.90;;;5.10;nan;101635.63;4908005;29;20747;-66
2023/01/31 02:14:07;;;;;;;0.40;0.40;;;5.30;99.90;;;5.09;nan;101633.97;4887109;29;20596;-66
2023/01/31 02:16:35;;;;;;;1.52;1.25;;;5.20;99.90;;;5.06;nan;101639.22;4897128;29;20699;-65
2023/01/31 02:19:10;;;;;;;3.42;2.22;;;5.20;99.90;;;5.06;nan;101637.50;4912669;29;20428;-65
2023/01/31 02:22:02;;;;;;;1.02;0.80;;;5.20;99.90;;;5.05;nan;101632.34;4901137;29;20269;-66
2023/01/31 02:25:13;;;;;;;3.72;1.10;;;5.20;99.90;;;5.04;nan;101641.03;4917257;29;20328;-66
2023/01/31 02:28:32;;;;;;;2.05;1.65;;;5.20;99.90;;;5.00;nan;101632.53;4917733;29;20218;-66
2023/01/31 02:31:48;;;;;;;0.85;0.85;;;5.20;99.90;;;4.94;nan;101627.53;4840945;29;20232;-66
2023/01/31 02:35:07;;;;;;;2.70;0.73;;;5.10;99.90;;;4.91;nan;101629.38;4901314;29;20221;-66
2023/01/31 02:37:50;;;;;;;0.90;0.90;;;5.10;99.90;;;4.88;nan;101630.31;4839816;29;20209;-66
2023/01/31 02:40:41;;;;;;;1.25;1.25;;;5.10;99.90;;;4.85;nan;101627.00;4911387;29;20210;-66
2023/01/31 02:47:00;;;;;;;2.40;2.20;;;5.00;99.90;;;4.79;nan;101629.78;4867284;29;20215;-67
2023/01/31 02:49:40;;;;;;;2.00;1.73;;;5.00;99.90;;;4.73;nan;101616.16;4871139;29;20214;-65
2023/01/31 02:52:46;;;;;;;7.38;1.52;;;4.90;99.90;;;4.68;nan;101623.19;4880212;29;20231;-67
2023/01/31 02:58:17;;;;;;;3.20;1.88;;;4.90;99.90;;;4.63;nan;101619.94;4892357;29;20257;-67
2023/01/31 03:00:47;;;;;;;2.22;1.60;;;4.80;99.90;;;4.60;nan;101620.03;4893483;29;20226;-69
2023/01/31 03:03:34;;;;;;;1.50;1.40;;;4.80;99.90;;;4.54;nan;101625.38;4877851;29;20209;-66
2023/01/31 03:06:11;;;;;;;1.10;1.10;;;4.70;99.90;;;4.51;nan;101628.09;4891377;29;20593;-67
2023/01/31 03:08:42;;;;;;;1.85;1.52;;;4.70;99.90;;;4.48;nan;101628.16;4906898;29;20256;-66
2023/01/31 03:11:11;;;;;;;1.50;1.40;;;4.70;99.90;;;4.45;nan;101623.09;4893381;29;20241;-66
2023/01/31 03:13:56;;;;;;;3.40;1.02;;;4.70;99.90;;;4.42;nan;101623.19;4894136;29;20212;-66
2023/01/31 03:19:57;;;;;;;1.90;1.80;;;4.60;99.90;;;4.38;nan;101637.09;4879065;29;20218;-70
2023/01/31 03:22:30;;;;;;;4.57;1.70;;;4.60;99.90;;;4.36;nan;101632.88;4880166;29;20692;-66
2023/01/31 03:24:59;;;;;;;1.75;1.60;;;4.60;99.90;;;4.32;nan;101629.53;4905812;29;20272;-64
2023/01/31 03:27:28;;;;;;;1.67;1.23;;;4.50;99.90;;;4.26;nan;101629.72;4911109;29;20214;-67
2023/01/31 03:30:08;;;;;;;0.30;0.30;;;4.50;99.90;;;4.25;nan;101637.50;4890050;29;20196;-67
2023/01/31 03:32:50;;;;;;;3.13;2.25;;;4.50;99.90;;;4.21;nan;101630.75;4886810;29;20211;-69
2023/01/31 03:35:25;;;;;;;3.47;2.08;;;4.40;99.90;;;4.16;nan;101642.94;4886427;29;20227;-67
2023/01/31 03:38:25;;;;;;;1.85;1.75;;;4.40;99.90;;;4.11;nan;101645.66;4884282;29;20197;-66
2023/01/31 03:41:11;;;;;;;2.00;1.20;;;4.30;99.90;;;4.09;nan;101649.19;4900869;29;20237;-67
2023/01/31 03:44:02;;;;;;;1.27;1.17;;;4.30;99.90;;;4.10;nan;101656.03;4912751;29;20572;-67
2023/01/31 03:46:51;;;;;;;1.20;0.80;;;4.30;99.90;;;4.07;nan;101654.38;4910528;29;20210;-66
2023/01/31 03:49:21;;;;;;;1.00;1.00;;;4.30;99.90;;;4.06;nan;101663.03;4894347;29;20605;-64
2023/01/31 03:51:58;;;;;;;1.88;1.40;;;4.30;99.90;;;4.01;nan;101675.22;4895178;29;20229;-67
2023/01/31 03:54:31;;;;;;;1.30;1.23;;;4.20;99.90;;;3.95;nan;101672.84;4897179;29;20206;-66
2023/01/31 03:57:21;;;;;;;7.53;1.77;;;4.20;99.90;;;3.91;nan;101677.25;4896760;29;20246;-67
2023/01/31 03:59:53;;;;;;;3.05;1.20;;;4.10;99.90;;;3.87;nan;101677.38;4886397;29;20192;-66
2023/01/31 04:02:27;;;;;;;2.03;1.85;;;4.10;99.90;;;3.85;nan;101681.72;4893279;29;20223;-69
2023/01/31 04:05:09;;;;;;;1.10;1.00;;;4.00;99.90;;;3.81;nan;101683.53;4877092;29;20293;-67
2023/01/31 04:07:37;;;;;;;0.75;0.70;;;4.00;99.90;;;3.79;nan;101674.97;4895931;29;20618;-67
2023/01/31 04:10:11;;;;;;;1.63;1.45;;;4.00;99.90;;;3.78;nan;101669.88;4895269;29;20199;-68
2023/01/31 04:12:39;;;;;;;2.35;1.40;;;4.00;99.90;;;3.76;nan;101663.91;4895451;29;20213;-66
2023/01/31 04:15:07;;;;;;;2.35;1.67;;;4.00;99.90;;;3.70;nan;101664.06;4895482;29;20729;-69
2023/01/31 04:17:34;;;;;;;1.00;0.95;;;3.90;99.90;;;3.70;nan;101667.50;4897318;29;20258;-67
2023/01/31 04:20:01;;;;;;;3.47;1.50;;;3.90;99.90;;;3.66;nan;101668.47;4895984;29;20687;-65
2023/01/31 04:22:28;;;;;;;1.75;1.58;;;3.90;99.90;;;3.63;nan;101667.69;4914381;29;20202;-68
2023/01/31 04:24:55;;;;;;;1.88;1.45;;;3.90;99.90;;;3.61;nan;101670.34;4915414;29;20282;-66
2023/01/31 04:27:22;;;;;;;1.20;0.85;;;3.90;99.90;;;3.59;nan;101672.13;4897592;29;20266;-65
2023/01/31 04:29:49;;;;;;;1.10;1.00;;;3.80;99.90;;;3.60;nan;101673.78;4912372;29;20201;-66
2023/01/31 04:32:16;;;;;;;2.80;1.42;;;3.80;99.90;;;3.59;nan;101671.25;4895558;29;20238;-67
2023/01/31 04:34:43;;;;;;;3.70;1.50;;;3.80;99.90;;;3.58;nan;101674.72;4897105;29;20221;-68
2023/01/31 04:37:10;;;;;;;0.50;0.40;;;3.80;99.90;;;3.58;nan;101674.72;4894651;29;20238;-66
2023/01/31 04:39:38;;;;;;;1.77;1.67;;;3.80;99.90;;;3.56;nan;101666.16;4894634;29;20207;-66
2023/01/31 04:42:06;;;;;;;5.22;2.30;;;3.80;99.90;;;3.51;nan;101663.75;4896954;29;20243;-71
2023/01/31 04:44:33;;;;;;;1.70;1.25;;;3.80;99.90;;;3.48;nan;101658.66;4893304;29;20207;-67
2023/01/31 04:47:00;;;;;;;1.90;1.33;;;3.70;99.90;;;3.44;nan;101662.19;4896309;29;20195;-67
2023/01/31 04:49:27;;;;;;;2.10;1.90;;;3.70;99.90;;;3.41;nan;101651.13;4902279;29;20668;-66
2023/01/31 04:51:54;;;;;;;3.15;2.20;;;3.70;99.90;;;3.39;nan;101652.88;4904485;29;20727;-67
2023/01/31 04:54:21;;;;;;;7.53;1.60;;;3.60;99.90;;;3.39;nan;101650.28;4895806;29;20203;-68
2023/01/31 04:56:48;;;;;;;3.38;2.00;;;3.70;99.90;;;3.39;nan;101655.44;4889618;29;20231;-66
2023/01/31 04:59:14;;;;;;;1.05;1.05;;;3.70;99.90;;;3.37;nan;101655.50;4904072;29;20202;-66
2023/01/31 05:01:41;;;;;;;0.60;0.60;;;3.60;99.90;;;3.33;nan;101658.19;4900234;29;20225;-66
2023/01/31 05:04:09;;;;;;;2.22;1.30;;;3.60;99.90;;;3.31;nan;101653.06;4905806;29;20210;-64
2023/01/31 05:06:37;;;;;;;3.15;1.50;;;3.60;99.90;;;3.24;nan;101666.19;4904505;29;20207;-66
2023/01/31 05:09:05;;;;;;;2.10;1.58;;;3.50;99.90;;;3.20;nan;101661.97;4894935;29;20207;-66
2023/01/31 05:11:32;;;;;;;5.60;1.35;;;3.50;99.90;;;3.09;nan;101649.34;4895121;29;20230;-67
2023/01/31 05:13:59;;;;;;;3.17;2.10;;;3.40;99.90;;;3.02;nan;101652.97;4898440;29;20214;-68
2023/01/31 05:16:26;;;;;;;2.40;2.20;;;3.30;99.90;;;2.97;nan;101650.50;4908243;29;20233;-67
2023/01/31 05:18:54;;;;;;;3.38;2.58;;;3.20;99.90;;;2.95;nan;101641.97;4892329;29;20270;-70
2023/01/31 05:21:21;;;;;;;1.70;1.60;;;3.20;99.90;;;2.93;nan;101642.88;4893377;29;20668;-70
2023/01/31 05:23:48;;;;;;;1.55;1.20;;;3.20;99.90;;;2.89;nan;101641.28;4895352;29;20803;-67
2023/01/31 05:26:15;;;;;;;1.85;1.75;;;3.20;99.90;;;2.88;nan;101645.56;4894273;29;20222;-67
2023/01/31 05:28:42;;;;;;;2.38;2.00;;;3.20;99.90;;;2.86;nan;101655.06;4893455;29;20210;-67
2023/01/31 05:31:10;;;;;;;1.50;1.40;;;3.10;99.90;;;2.80;nan;101646.63;4895898;29;20782;-69
2023/01/31 05:33:37;;;;;;;1.63;1.45;;;3.10;99.90;;;2.76;nan;101643.28;4901431;29;20207;-66
2023/01/31 05:36:04;;;;;;;1.25;1.15;;;3.10;99.90;;;2.73;nan;101648.50;4894300;29;20227;-68
2023/01/31 05:38:31;;;;;;;2.47;1.55;;;3.00;99.90;;;2.66;nan;101649.53;4894068;29;20216;-68
2023/01/31 05:40:59;;;;;;;1.10;1.10;;;3.00;99.90;;;2.58;nan;101645.47;4895055;29;20728;-67
2023/01/31 05:43:27;;;;;;;4.97;1.33;;;2.90;99.90;;;2.53;nan;101644.72;4897756;29;20206;-68
2023/01/31 05:45:54;;;;;;;1.70;1.40;;;2.80;99.90;;;2.54;nan;101651.53;4891155;29;20255;-69
2023/01/31 05:48:21;;;;;;;1.23;0.93;;;2.80;99.90;;;2.50;nan;101640.47;4893994;29;20214;-67
2023/01/31 05:50:49;;;;;;;3.10;1.50;;;2.80;99.90;;;2.46;nan;101641.44;4896002;29;20273;-68
2023/01/31 05:53:17;;;;;;;5.13;2.25;;;2.70;99.90;;;2.41;nan;101645.81;4894656;29;20269;-67
2023/01/31 05:55:44;;;;;;;1.65;1.55;;;2.70;99.90;;;2.40;nan;101645.88;4895722;29;20700;-67
2023/01/31 05:58:12;;;;;;;1.85;1.20;;;2.70;99.90;;;2.42;nan;101644.09;4893571;29;20243;-65
2023/01/31 06:00:39;;;;;;;1.10;1.00;;;2.60;99.90;;;2.41;nan;101643.25;4888976;29;20231;-66
2023/01/31 06:03:07;;;;;;;4.30;2.22;;;2.70;99.90;;;2.41;nan;101648.41;4895678;29;20207;-70
2023/01/31 06:05:34;;;;;;;1.08;0.77;;;2.70;99.90;;;2.41;nan;101650.97;4878824;29;20250;-66
2023/01/31 06:08:02;;;;;;;0.93;0.90;;;2.70;99.90;;;2.42;nan;101655.25;4892613;29;20211;-65
2023/01/31 06:10:28;;;;;;;3.97;2.85;;;2.70;99.90;;;2.48;nan;101659.41;4878703;29;20227;-65
2023/01/31 06:12:56;;;;;;;3.85;3.00;;;2.70;99.90;;;2.51;nan;101659.38;4893651;29;20203;-67
2023/01/31 06:15:24;;;;;;;2.78;1.95;;;2.80;99.90;;;2.58;nan;101666.91;4895180;29;20214;-69
2023/01/31 06:17:51;;;;;;;3.20;2.92;;;2.80;99.90;;;2.66;nan;101670.16;4889434;29;20204;-68
2023/01/31 06:20:18;;;;;;;1.77;1.05;;;2.90;99.90;;;2.73;nan;101663.97;4884262;29;20206;-67
2023/01/31 06:22:45;;;;;;;1.80;1.70;;;3.00;99.90;;;2.78;nan;101667.31;4893890;29;20215;-66
2023/01/31 06:25:12;;;;;;;1.38;0.63;;;3.10;99.90;;;2.80;nan;101673.25;4880169;29;20660;-67
2023/01/31 06:27:39;;;;;;;1.13;1.13;;;3.10;99.90;;;2.76;nan;101653.59;4897168;29;20225;-67
2023/01/31 06:30:07;;;;;;;1.75;1.65;;;3.00;99.90;;;2.75;nan;101654.47;4898114;29;20214;-66
2023/01/31 06:32:35;;;;;;;1.52;1.17;;;3.00;99.90;;;2.74;nan;101660.53;4911862;29;20211;-65
2023/01/31 06:35:03;;;;;;;3.95;1.80;;;3.00;99.90;;;2.74;nan;101645.06;4898770;29;20219;-65
2023/01/31 06:37:30;;;;;;;2.15;2.00;;;3.00;99.90;;;2.76;nan;101651.03;4905317;29;20284;-66
2023/01/31 06:39:58;;;;;;;7.32;4.40;;;3.00;99.90;;;2.77;nan;101650.13;4899068;29;20676;-66
2023/01/31 06:42:25;;;;;;;5.22;3.58;;;3.00;99.90;;;2.78;nan;101649.25;4911222;29;20617;-68
2023/01/31 06:44:52;;;;;;;10.70;4.35;;;3.00;99.90;;;2.82;nan;101656.03;4909526;29;20277;-65
2023/01/31 06:47:19;;;;;;;6.00;3.22;;;3.00;99.90;;;2.84;nan;101656.84;4912483;29;20854;-65
2023/01/31 06:49:46;;;;;;;3.38;2.13;;;3.10;99.90;;;2.91;nan;101660.13;4895709;29;20567;-65
2023/01/31 06:52:13;;;;;;;4.35;3.75;;;3.20;99.90;;;2.95;nan;101661.75;4911342;29;20234;-66
2023/01/31 06:54:41;;;;;;;4.55;2.97;;;3.20;99.90;;;3.02;nan;101671.84;4898447;29;20703;-66
2023/01/31 06:57:08;;;;;;;1.85;1.63;;;3.30;99.90;;;3.07;nan;101672.59;4897536;29;20233;-66
2023/01/31 06:59:34;;;;;;;4.55;2.90;;;3.30;99.90;;;3.11;nan;101678.50;4909572;29;20206;-67
2023/01/31 07:02:01;;;;;;;3.42;3.10;;;3.40;99.90;;;3.14;nan;101675.88;4902020;29;20249;-72
2023/01/31 07:04:28;;;;;;;3.15;1.92;;;3.40;99.90;;;3.14;nan;101687.03;4877462;29;20665;-67
2023/01/31 07:06:56;;;;;;;4.85;3.20;;;3.40;99.90;;;3.14;nan;101687.03;4895716;29;20675;-69
2023/01/31 07:09:23;;;;;;;6.32;2.42;;;3.40;99.90;;;3.13;nan;101682.75;4895188;29;20221;-67
2023/01/31 07:11:50;;;;;;;2.92;2.58;;;3.40;99.90;;;3.12;nan;101683.66;4882037;29;20704;-67
2023/01/31 07:14:17;;;;;;;2.55;2.35;;;3.40;99.90;;;3.09;nan;101688.88;4899932;29;20213;-67
2023/01/31 07:16:44;;;;;;;1.85;1.75;;;3.30;99.90;;;3.08;nan;101689.78;4896466;29;20695;-73
2023/01/31 07:19:11;;;;;;;1.25;0.88;;;3.30;99.90;;;3.04;nan;101698.47;4906717;29;20206;-67
2023/01/31 07:21:38;;;;;;;2.53;0.70;;;3.40;99.90;;;3.03;nan;101701.91;4916153;29;20230;-66
2023/01/31 07:24:05;;;;;;;2.15;2.05;;;3.30;99.90;;;2.97;nan;101708.94;4894482;29;20219;-67
2023/01/31 07:26:33;;;;;;;4.15;3.05;;;3.30;99.90;;;2.95;nan;101709.00;4897017;29;20635;-67
2023/01/31 07:29:00;;;;;;;6.90;3.85;;;3.20;99.90;;;2.95;nan;101714.16;4892232;29;20218;-69
2023/01/31 07:31:27;;;;;;;5.60;3.67;;;3.20;99.90;;;2.98;nan;101720.97;4901965;29;20234;-66
2023/01/31 07:33:54;;;;;;;3.45;1.85;;;3.20;99.90;;;3.05;nan;101725.06;4902322;29;20225;-70
2023/01/31 07:36:25;;;;;;;5.63;3.33;;;3.30;99.90;;;3.09;nan;101732.72;4896659;29;20219;-67
2023/01/31 07:38:54;;;;;;;3.00;2.60;;;3.30;99.90;;;3.16;nan;101730.84;4896582;29;20199;-67
2023/01/31 07:41:22;;;;;;;5.43;3.83;;;3.40;99.90;;;3.23;nan;101726.38;4898973;29;20866;-66
2023/01/31 07:43:49;;;;;;;5.57;3.60;;;3.40;99.90;;;3.31;nan;101720.16;4875057;29;20187;-67
2023/01/31 07:46:17;;;;;;;5.82;3.33;;;3.60;99.90;;;3.51;nan;101722.22;4897144;29;20225;-68
2023/01/31 07:48:45;;;;;;;5.75;3.30;;;3.70;99.90;;;3.76;nan;101716.38;4895486;29;20604;-66
2023/01/31 07:51:12;;;;;;;4.50;2.90;;;4.00;99.90;;;4.11;nan;101727.50;4894080;29;20234;-67
2023/01/31 07:53:41;;;;;;;5.32;3.75;;;4.30;99.90;;;4.42;nan;101723.97;4894970;29;20214;-67
2023/01/31 07:56:19;;;;;;;7.50;4.15;;;4.60;99.90;;;4.89;nan;101719.94;4894837;29;21253;-66
2023/01/31 07:58:48;;;;;;;4.18;3.55;;;5.10;99.90;;;5.50;nan;101706.69;4894530;29;20278;-66
2023/01/31 08:04:08;;;;;;;7.00;3.93;;;6.30;99.90;;;6.71;nan;101719.56;4896460;29;20707;-66
2023/01/31 08:06:48;;;;;;;6.07;3.37;;;6.90;99.90;;;7.18;nan;101720.25;4895556;29;20654;-69
2023/01/31 08:09:15;;;;;;;6.77;4.03;;;7.40;99.90;;;7.59;nan;101719.41;4899560;29;20696;-70
2023/01/31 08:11:42;;;;;;;9.13;3.67;;;7.90;99.90;;;7.95;nan;101724.75;4906487;29;20674;-74
2023/01/31 08:14:09;;;;;;;5.37;3.50;;;8.30;99.90;;;8.62;nan;101726.06;4896924;29;20616;-69
2023/01/31 08:16:37;;;;;;;7.93;4.13;;;8.90;99.90;;;9.11;nan;101717.63;4899014;29;21291;-65
2023/01/31 08:19:04;;;;;;;6.13;3.70;;;9.50;99.90;;;8.95;nan;101727.06;4904148;29;20617;-65
2023/01/31 08:21:32;;;;;;;3.70;3.20;;;9.50;99.90;;;8.44;nan;101713.88;4895797;29;20676;-69
2023/01/31 08:23:59;;;;;;;2.80;2.40;;;8.90;99.90;;;7.99;nan;101716.78;4892973;29;20646;-68
2023/01/31 08:26:26;;;;;;;4.80;3.30;;;8.40;99.90;;;7.46;nan;101711.28;4892287;29;20627;-67
2023/01/31 08:28:53;;;;;;;3.00;2.70;;;7.90;99.90;;;7.14;nan;101716.09;4894137;29;20695;-70
2023/01/31 08:31:23;;;;;;;6.77;3.67;;;7.50;99.90;;;6.80;nan;101706.22;4896624;29;20675;-66
2023/01/31 08:33:52;;;;;;;3.27;2.63;;;7.20;99.90;;;6.53;nan;101709.91;4909426;29;20629;-65
2023/01/31 08:36:22;;;;;;;5.37;2.50;;;6.90;99.90;;;6.31;nan;101702.09;4905863;29;20650;-65
2023/01/31 08:38:50;;;;;;;1.47;1.20;;;6.60;99.90;;;6.10;nan;101695.97;4895822;29;20626;-66
2023/01/31 08:41:20;;;;;;;5.90;2.90;;;6.40;99.90;;;5.93;nan;101700.91;4912673;23;20671;-65
2023/01/31 08:43:48;;;;;;;3.90;2.83;;;6.20;99.90;;;5.77;nan;101711.84;4968913;28;21053;-67
2023/01/31 08:46:34;;;;;;;4.95;3.35;;;6.00;99.90;;;5.67;nan;101702.69;4986099;28;20627;-65
2023/01/31 08:49:04;;;;;;;3.37;2.47;;;5.90;99.90;;;5.59;nan;101705.53;4971013;28;20204;-64
2023/01/31 08:51:31;;;;;;;6.00;3.70;;;5.80;99.90;;;5.50;nan;101706.69;4971796;28;20638;-66
2023/01/31 08:53:58;;;;;;;4.40;3.03;;;5.70;99.90;;;5.41;nan;101708.75;4987370;28;20667;-66
2023/01/31 08:56:26;;;;;;;7.78;3.40;;;5.70;99.90;;;5.40;nan;101707.06;4990847;28;20642;-68
2023/01/31 08:58:54;;;;;;;2.67;2.47;;;5.60;99.90;;;5.42;nan;101697.50;4989898;28;20210;-65
2023/01/31 09:01:21;;;;;;;2.95;2.55;;;5.60;99.90;;;5.38;nan;101701.94;4973840;28;21229;-66
2023/01/31 09:03:55;;;;;;;4.97;2.75;;;5.60;99.90;;;5.31;nan;101704.78;4990597;28;20207;-66
2023/01/31 09:06:25;;;;;;;5.22;3.40;;;5.50;99.90;;;5.31;nan;101715.13;4975432;28;20199;-66
2023/01/31 09:08:57;;;;;;;2.90;2.70;;;5.50;99.90;;;5.30;nan;101734.16;4990071;28;20222;-65
2023/01/31 09:11:27;;;;;;;4.55;3.50;;;5.50;99.90;;;5.28;nan;101717.84;4973998;28;20676;-67
2023/01/31 09:13:55;;;;;;;3.75;2.75;;;5.50;99.90;;;5.27;nan;101726.47;4973321;28;20199;-66
2023/01/31 09:16:22;;;;;;;5.63;3.25;;;5.50;99.90;;;5.17;nan;101710.44;4991434;28;20257;-66
2023/01/31 09:18:50;;;;;;;3.80;3.42;;;5.40;99.90;;;5.16;nan;101718.22;4990224;28;20200;-65
2023/01/31 09:21:20;;;;;;;2.95;2.75;;;5.40;99.90;;;5.18;nan;101729.34;4991588;28;20203;-65
2023/01/31 09:23:48;;;;;;;7.00;3.38;;;5.40;99.90;;;5.23;nan;101730.91;4973109;28;20199;-65
2023/01/31 09:26:15;;;;;;;4.13;2.80;;;5.40;99.90;;;5.30;nan;101721.22;4991302;28;20211;-66
2023/01/31 09:28:44;;;;;;;2.95;1.88;;;5.50;99.90;;;5.32;nan;101722.00;4972591;28;20203;-68
2023/01/31 09:31:14;;;;;;;3.47;2.72;;;5.50;99.90;;;5.34;nan;101713.31;4973374;28;20263;-67
2023/01/31 09:33:42;;;;;;;4.90;1.58;;;5.50;99.90;;;5.28;nan;101707.47;4974415;28;20207;-65
2023/01/31 09:36:12;;;;;;;2.97;2.05;;;5.50;99.90;;;5.32;nan;101701.31;4990510;28;20203;-66
2023/01/31 09:38:40;;;;;;;4.63;1.55;;;5.50;99.90;;;5.38;nan;101688.16;4987684;28;20695;-67
2023/01/31 09:41:38;;;;;;;0.70;0.70;;;5.60;99.90;;;5.42;nan;101674.22;4989889;28;20581;-68
2023/01/31 09:44:28;;;;;;;4.50;2.15;;;5.60;99.90;;;5.42;nan;101680.25;4990921;28;20203;-67
2023/01/31 09:47:27;;;;;;;4.90;3.10;;;5.60;99.90;;;5.55;nan;101688.44;4970297;28;20212;-66
2023/01/31 09:50:19;;;;;;;7.70;4.13;;;5.70;99.90;;;5.73;nan;101685.19;4985668;28;20199;-67
2023/01/31 09:52:47;;;;;;;8.13;3.67;;;5.90;99.90;;;5.95;nan;101688.75;4972966;28;20237;-66
2023/01/31 09:55:22;;;;;;;3.85;3.45;;;6.10;99.90;;;6.23;nan;101688.56;4990159;28;20249;-66
2023/01/31 09:58:08;;;;;;;6.50;4.33;;;6.30;99.90;;;6.48;nan;101699.72;4973502;28;20231;-65
2023/01/31 10:00:51;;;;;;;6.90;4.20;;;6.60;99.90;;;6.71;nan;101701.41;4956789;28;20661;-67
2023/01/31 10:03:36;;;;;;;6.60;3.17;;;6.80;99.90;;;6.94;nan;101694.41;4966148;28;21233;-66
2023/01/31 10:06:46;;;;;;;3.23;2.80;;;7.10;99.90;;;7.19;nan;101701.19;4993701;28;20642;-66
2023/01/31 10:09:41;;;;;;;7.20;3.83;;;7.30;99.90;;;7.29;nan;101703.34;4976248;28;20622;-69
2023/01/31 10:12:53;;;;;;;7.73;4.00;;;7.40;99.90;;;7.30;nan;101715.44;4977448;28;20664;-67
2023/01/31 10:15:29;;;;;;;4.70;3.20;;;7.50;99.90;;;7.32;nan;101708.44;4966928;28;20653;-65
2023/01/31 10:18:08;;;;;;;7.87;3.63;;;7.50;99.90;;;7.27;nan;101689.59;4977336;28;20661;-66
2023/01/31 10:20:49;;;;;;;4.63;2.90;;;7.40;99.90;;;7.22;nan;101685.50;4994035;28;20638;-67
2023/01/31 10:23:29;;;;;;;1.17;1.17;;;7.40;99.90;;;7.13;nan;101678.09;5000085;28;20697;-67
2023/01/31 10:26:17;;;;;;;6.43;3.60;;;7.30;99.90;;;7.03;nan;101669.81;4994847;28;20638;-66
2023/01/31 10:28:57;;;;;;;6.43;4.00;;;7.30;99.90;;;6.95;nan;101677.94;4993001;28;20633;-66
2023/01/31 10:31:39;;;;;;;3.10;2.47;;;7.20;99.90;;;6.91;nan;101686.75;4994136;28;21036;-66
2023/01/31 10:34:26;;;;;;;1.93;1.83;;;7.10;99.90;;;6.78;nan;101679.50;4982688;28;20641;-66
2023/01/31 10:37:15;;;;;;;1.53;0.80;;;7.00;99.90;;;6.68;nan;101663.50;4979737;28;20673;-66
2023/01/31 10:40:18;;;;;;;2.13;1.90;;;6.90;99.90;;;6.49;nan;101664.25;4993129;28;20705;-66
2023/01/31 10:42:52;;;;;;;5.37;2.57;;;6.80;99.90;;;6.43;nan;101670.50;4968330;28;20682;-66
2023/01/31 10:45:29;;;;;;;5.23;3.27;;;6.60;99.90;;;6.39;nan;101673.31;4991256;28;20668;-66
2023/01/31 10:48:15;;;;;;;4.70;2.87;;;6.60;99.90;;;6.38;nan;101663.81;4989912;28;21317;-66
2023/01/31 10:51:19;;;;;;;3.40;2.13;;;6.60;99.90;;;6.40;nan;101664.59;4993121;28;20664;-65
2023/01/31 10:54:30;;;;;;;4.90;3.37;;;6.60;99.90;;;6.40;nan;101672.38;4982177;28;20634;-65
2023/01/31 10:56:58;;;;;;;3.93;2.83;;;6.60;99.90;;;6.38;nan;101681.97;4998019;28;21218;-66
2023/01/31 10:59:40;;;;;;;3.43;2.37;;;6.50;99.90;;;6.37;nan;101677.69;4992851;28;20633;-66
2023/01/31 11:02:27;;;;;;;4.50;2.00;;;6.50;99.90;;;6.35;nan;101675.16;4991563;28;20662;-66
2023/01/31 11:04:58;;;;;;;1.53;1.43;;;6.50;99.90;;;6.34;nan;101675.22;4990782;28;20618;-67
2023/01/31 11:07:29;;;;;;;2.17;1.77;;;6.50;99.90;;;6.37;nan;101662.16;4992515;28;20630;-68
2023/01/31 11:09:58;;;;;;;2.00;1.77;;;6.50;99.90;;;6.40;nan;101657.69;5006348;28;20638;-67
2023/01/31 11:12:52;;;;;;;1.77;1.57;;;6.60;99.90;;;6.44;nan;101654.06;4975629;28;20777;-65
2023/01/31 11:15:24;;;;;;;4.93;2.67;;;6.60;99.90;;;6.47;nan;101638.41;4989580;28;20615;-65
2023/01/31 11:17:52;;;;;;;2.70;2.10;;;6.60;99.90;;;6.51;nan;101616.63;4971968;28;20661;-64
2023/01/31 11:20:28;;;;;;;3.10;2.83;;;6.60;99.90;;;6.59;nan;101616.31;4992414;28;21176;-64